sensor_id;sensor_type;location;lat;lon;timestamp;P1;durP1;ratioP1;P2;durP2;ratioP2
38435;SDS011;24220;48.168;14.024;2022-11-13T00:01:13;11.32;;;7.35;;
38435;SDS011;24220;48.168;14.024;2022-11-13T00:03:41;12.30;;;8.05;;
38435;SDS011;24220;48.168;14.024;2022-11-13T00:06:09;18.88;;;7.95;;
38435;SDS011;24220;48.168;14.024;2022-11-13T00:08:38;30.20;;;9.20;;
38435;SDS011;24220;48.168;14.024;2022-11-13T00:11:10;13.18;;;9.13;;
38435;SDS011;24220;48.168;14.024;2022-11-13T00:13:40;14.43;;;8.27;;
38435;SDS011;24220;48.168;14.024;2022-11-13T00:16:12;15.00;;;8.93;;
38435;SDS011;24220;48.168;14.024;2022-11-13T00:18:41;9.63;;;8.07;;
38435;SDS011;24220;48.168;14.024;2022-11-13T00:21:16;17.48;;;8.68;;
38435;SDS011;24220;48.168;14.024;2022-11-13T00:23:46;15.10;;;8.52;;
38435;SDS011;24220;48.168;14.024;2022-11-13T00:26:17;15.38;;;8.68;;
38435;SDS011;24220;48.168;14.024;2022-11-13T00:28:52;11.38;;;7.85;;
38435;SDS011;24220;48.168;14.024;2022-11-13T00:31:21;13.13;;;8.38;;
38435;SDS011;24220;48.168;14.024;2022-11-13T00:33:51;16.50;;;8.02;;
38435;SDS011;24220;48.168;14.024;2022-11-13T00:36:41;13.13;;;6.97;;
38435;SDS011;24220;48.168;14.024;2022-11-13T00:39:08;9.50;;;7.97;;
38435;SDS011;24220;48.168;14.024;2022-11-13T00:41:36;14.52;;;7.60;;
38435;SDS011;24220;48.168;14.024;2022-11-13T00:44:03;10.05;;;7.22;;
38435;SDS011;24220;48.168;14.024;2022-11-13T00:46:31;12.77;;;8.52;;
38435;SDS011;24220;48.168;14.024;2022-11-13T00:48:58;18.40;;;7.50;;
38435;SDS011;24220;48.168;14.024;2022-11-13T00:51:25;12.32;;;7.47;;
38435;SDS011;24220;48.168;14.024;2022-11-13T00:53:55;9.57;;;7.75;;
38435;SDS011;24220;48.168;14.024;2022-11-13T00:56:22;10.13;;;7.28;;
38435;SDS011;24220;48.168;14.024;2022-11-13T00:58:50;11.85;;;7.65;;
38435;SDS011;24220;48.168;14.024;2022-11-13T01:01:17;11.43;;;7.10;;
38435;SDS011;24220;48.168;14.024;2022-11-13T01:03:47;9.27;;;7.38;;
38435;SDS011;24220;48.168;14.024;2022-11-13T01:06:16;10.93;;;7.32;;
38435;SDS011;24220;48.168;14.024;2022-11-13T01:08:55;9.73;;;7.07;;
38435;SDS011;24220;48.168;14.024;2022-11-13T01:11:24;16.70;;;7.80;;
38435;SDS011;24220;48.168;14.024;2022-11-13T01:13:56;10.43;;;7.75;;
38435;SDS011;24220;48.168;14.024;2022-11-13T01:16:27;11.15;;;7.00;;
38435;SDS011;24220;48.168;14.024;2022-11-13T01:18:55;11.23;;;8.07;;
38435;SDS011;24220;48.168;14.024;2022-11-13T01:21:25;13.48;;;7.60;;
38435;SDS011;24220;48.168;14.024;2022-11-13T01:23:55;11.70;;;6.67;;
38435;SDS011;24220;48.168;14.024;2022-11-13T01:26:25;9.30;;;7.38;;
38435;SDS011;24220;48.168;14.024;2022-11-13T01:28:54;10.32;;;7.03;;
38435;SDS011;24220;48.168;14.024;2022-11-13T01:31:24;13.38;;;7.38;;
38435;SDS011;24220;48.168;14.024;2022-11-13T01:33:53;12.73;;;7.13;;
38435;SDS011;24220;48.168;14.024;2022-11-13T01:36:24;11.38;;;7.10;;
38435;SDS011;24220;48.168;14.024;2022-11-13T01:41:24;9.55;;;6.70;;
38435;SDS011;24220;48.168;14.024;2022-11-13T01:43:54;11.55;;;7.25;;
38435;SDS011;24220;48.168;14.024;2022-11-13T01:46:55;10.05;;;7.25;;
38435;SDS011;24220;48.168;14.024;2022-11-13T01:49:32;8.95;;;7.07;;
38435;SDS011;24220;48.168;14.024;2022-11-13T01:52:16;11.32;;;6.93;;
38435;SDS011;24220;48.168;14.024;2022-11-13T01:54:49;16.20;;;7.97;;
38435;SDS011;24220;48.168;14.024;2022-11-13T01:57:21;12.32;;;7.45;;
38435;SDS011;24220;48.168;14.024;2022-11-13T01:59:51;12.85;;;6.78;;
38435;SDS011;24220;48.168;14.024;2022-11-13T02:02:22;14.07;;;6.75;;
38435;SDS011;24220;48.168;14.024;2022-11-13T02:04:52;9.88;;;7.00;;
38435;SDS011;24220;48.168;14.024;2022-11-13T02:07:20;10.35;;;6.68;;
38435;SDS011;24220;48.168;14.024;2022-11-13T02:12:23;16.60;;;6.68;;
38435;SDS011;24220;48.168;14.024;2022-11-13T02:15:04;10.18;;;6.22;;
38435;SDS011;24220;48.168;14.024;2022-11-13T02:20:18;9.50;;;5.93;;
38435;SDS011;24220;48.168;14.024;2022-11-13T02:22:58;7.13;;;6.03;;
38435;SDS011;24220;48.168;14.024;2022-11-13T02:25:46;9.45;;;5.90;;
38435;SDS011;24220;48.168;14.024;2022-11-13T02:28:16;9.30;;;5.88;;
38435;SDS011;24220;48.168;14.024;2022-11-13T02:30:43;7.53;;;6.18;;
38435;SDS011;24220;48.168;14.024;2022-11-13T02:33:23;7.70;;;6.03;;
38435;SDS011;24220;48.168;14.024;2022-11-13T02:35:54;12.17;;;6.20;;
38435;SDS011;24220;48.168;14.024;2022-11-13T02:38:21;8.90;;;6.80;;
38435;SDS011;24220;48.168;14.024;2022-11-13T02:40:49;16.83;;;6.35;;
38435;SDS011;24220;48.168;14.024;2022-11-13T02:43:19;11.23;;;6.18;;
38435;SDS011;24220;48.168;14.024;2022-11-13T02:45:48;9.20;;;6.60;;
38435;SDS011;24220;48.168;14.024;2022-11-13T02:48:15;7.45;;;6.68;;
38435;SDS011;24220;48.168;14.024;2022-11-13T02:50:43;8.15;;;6.72;;
38435;SDS011;24220;48.168;14.024;2022-11-13T02:53:10;10.25;;;6.75;;
38435;SDS011;24220;48.168;14.024;2022-11-13T02:55:38;12.57;;;7.78;;
38435;SDS011;24220;48.168;14.024;2022-11-13T02:58:05;11.77;;;6.47;;
38435;SDS011;24220;48.168;14.024;2022-11-13T03:00:34;7.28;;;6.50;;
38435;SDS011;24220;48.168;14.024;2022-11-13T03:03:02;10.82;;;6.97;;
38435;SDS011;24220;48.168;14.024;2022-11-13T03:05:31;10.13;;;7.07;;
38435;SDS011;24220;48.168;14.024;2022-11-13T03:07:59;9.13;;;6.82;;
38435;SDS011;24220;48.168;14.024;2022-11-13T03:10:26;18.85;;;6.78;;
38435;SDS011;24220;48.168;14.024;2022-11-13T03:12:57;9.63;;;5.95;;
38435;SDS011;24220;48.168;14.024;2022-11-13T03:15:24;11.55;;;6.20;;
38435;SDS011;24220;48.168;14.024;2022-11-13T03:17:52;22.83;;;7.00;;
38435;SDS011;24220;48.168;14.024;2022-11-13T03:20:19;12.70;;;6.55;;
38435;SDS011;24220;48.168;14.024;2022-11-13T03:22:46;9.00;;;6.07;;
38435;SDS011;24220;48.168;14.024;2022-11-13T03:25:13;9.95;;;6.78;;
38435;SDS011;24220;48.168;14.024;2022-11-13T03:27:41;8.63;;;7.05;;
38435;SDS011;24220;48.168;14.024;2022-11-13T03:30:08;11.38;;;7.32;;
38435;SDS011;24220;48.168;14.024;2022-11-13T03:32:36;11.02;;;7.43;;
38435;SDS011;24220;48.168;14.024;2022-11-13T03:35:04;10.98;;;7.28;;
38435;SDS011;24220;48.168;14.024;2022-11-13T03:37:32;9.23;;;7.72;;
38435;SDS011;24220;48.168;14.024;2022-11-13T03:40:01;9.00;;;7.32;;
38435;SDS011;24220;48.168;14.024;2022-11-13T03:42:29;15.00;;;7.28;;
38435;SDS011;24220;48.168;14.024;2022-11-13T03:44:57;10.02;;;6.63;;
38435;SDS011;24220;48.168;14.024;2022-11-13T03:47:26;7.68;;;6.90;;
38435;SDS011;24220;48.168;14.024;2022-11-13T03:49:53;8.50;;;7.00;;
38435;SDS011;24220;48.168;14.024;2022-11-13T03:52:21;8.95;;;6.68;;
38435;SDS011;24220;48.168;14.024;2022-11-13T03:54:48;7.10;;;6.40;;
38435;SDS011;24220;48.168;14.024;2022-11-13T03:57:15;7.28;;;6.43;;
38435;SDS011;24220;48.168;14.024;2022-11-13T03:59:45;6.97;;;6.28;;
38435;SDS011;24220;48.168;14.024;2022-11-13T04:02:12;8.00;;;6.00;;
38435;SDS011;24220;48.168;14.024;2022-11-13T04:04:39;7.55;;;6.75;;
38435;SDS011;24220;48.168;14.024;2022-11-13T04:07:10;6.82;;;6.07;;
38435;SDS011;24220;48.168;14.024;2022-11-13T04:09:40;6.75;;;6.05;;
38435;SDS011;24220;48.168;14.024;2022-11-13T04:12:11;7.10;;;6.18;;
38435;SDS011;24220;48.168;14.024;2022-11-13T04:14:39;7.15;;;5.63;;
38435;SDS011;24220;48.168;14.024;2022-11-13T04:17:06;6.80;;;6.10;;
38435;SDS011;24220;48.168;14.024;2022-11-13T04:19:33;8.85;;;6.65;;
38435;SDS011;24220;48.168;14.024;2022-11-13T04:22:00;7.00;;;6.30;;
38435;SDS011;24220;48.168;14.024;2022-11-13T04:24:28;7.47;;;6.28;;
38435;SDS011;24220;48.168;14.024;2022-11-13T04:26:55;8.90;;;6.85;;
38435;SDS011;24220;48.168;14.024;2022-11-13T04:29:23;10.52;;;7.00;;
38435;SDS011;24220;48.168;14.024;2022-11-13T04:31:50;11.23;;;6.50;;
38435;SDS011;24220;48.168;14.024;2022-11-13T04:34:19;11.88;;;6.63;;
38435;SDS011;24220;48.168;14.024;2022-11-13T04:36:47;10.55;;;6.82;;
38435;SDS011;24220;48.168;14.024;2022-11-13T04:39:14;10.45;;;6.57;;
38435;SDS011;24220;48.168;14.024;2022-11-13T04:41:41;7.85;;;7.07;;
38435;SDS011;24220;48.168;14.024;2022-11-13T04:44:27;7.95;;;6.25;;
38435;SDS011;24220;48.168;14.024;2022-11-13T04:46:57;7.50;;;6.70;;
38435;SDS011;24220;48.168;14.024;2022-11-13T04:49:24;7.68;;;6.60;;
38435;SDS011;24220;48.168;14.024;2022-11-13T04:51:51;7.10;;;6.40;;
38435;SDS011;24220;48.168;14.024;2022-11-13T04:54:21;11.43;;;6.43;;
38435;SDS011;24220;48.168;14.024;2022-11-13T04:56:54;9.02;;;6.50;;
38435;SDS011;24220;48.168;14.024;2022-11-13T04:59:22;9.43;;;6.55;;
38435;SDS011;24220;48.168;14.024;2022-11-13T05:01:50;12.48;;;6.75;;
38435;SDS011;24220;48.168;14.024;2022-11-13T05:04:17;8.10;;;6.82;;
38435;SDS011;24220;48.168;14.024;2022-11-13T05:06:47;11.90;;;7.20;;
38435;SDS011;24220;48.168;14.024;2022-11-13T05:09:17;9.13;;;7.45;;
38435;SDS011;24220;48.168;14.024;2022-11-13T05:11:44;11.15;;;7.93;;
38435;SDS011;24220;48.168;14.024;2022-11-13T05:14:11;12.70;;;8.27;;
38435;SDS011;24220;48.168;14.024;2022-11-13T05:16:39;9.32;;;7.80;;
38435;SDS011;24220;48.168;14.024;2022-11-13T05:19:06;13.00;;;8.65;;
38435;SDS011;24220;48.168;14.024;2022-11-13T05:21:34;10.02;;;7.97;;
38435;SDS011;24220;48.168;14.024;2022-11-13T05:24:03;10.68;;;9.15;;
38435;SDS011;24220;48.168;14.024;2022-11-13T05:26:30;13.07;;;8.43;;
38435;SDS011;24220;48.168;14.024;2022-11-13T05:28:58;11.98;;;8.43;;
38435;SDS011;24220;48.168;14.024;2022-11-13T05:31:26;10.52;;;8.68;;
38435;SDS011;24220;48.168;14.024;2022-11-13T05:33:56;12.73;;;9.25;;
38435;SDS011;24220;48.168;14.024;2022-11-13T05:36:31;8.88;;;7.78;;
38435;SDS011;24220;48.168;14.024;2022-11-13T05:38:59;11.73;;;9.07;;
38435;SDS011;24220;48.168;14.024;2022-11-13T05:41:26;11.52;;;9.13;;
38435;SDS011;24220;48.168;14.024;2022-11-13T05:43:54;10.00;;;8.45;;
38435;SDS011;24220;48.168;14.024;2022-11-13T05:46:26;10.90;;;8.25;;
38435;SDS011;24220;48.168;14.024;2022-11-13T05:48:58;10.27;;;8.30;;
38435;SDS011;24220;48.168;14.024;2022-11-13T05:51:32;9.57;;;8.27;;
38435;SDS011;24220;48.168;14.024;2022-11-13T05:54:00;10.43;;;8.93;;
38435;SDS011;24220;48.168;14.024;2022-11-13T05:56:29;13.63;;;9.02;;
38435;SDS011;24220;48.168;14.024;2022-11-13T05:58:58;12.55;;;9.40;;
38435;SDS011;24220;48.168;14.024;2022-11-13T06:01:30;12.02;;;9.18;;
38435;SDS011;24220;48.168;14.024;2022-11-13T06:04:04;13.35;;;9.88;;
38435;SDS011;24220;48.168;14.024;2022-11-13T06:06:32;12.50;;;10.13;;
38435;SDS011;24220;48.168;14.024;2022-11-13T06:09:03;11.98;;;9.95;;
38435;SDS011;24220;48.168;14.024;2022-11-13T06:11:31;16.13;;;10.10;;
38435;SDS011;24220;48.168;14.024;2022-11-13T06:13:59;16.80;;;10.13;;
38435;SDS011;24220;48.168;14.024;2022-11-13T06:16:34;15.82;;;10.13;;
38435;SDS011;24220;48.168;14.024;2022-11-13T06:19:05;18.25;;;10.32;;
38435;SDS011;24220;48.168;14.024;2022-11-13T06:21:36;20.50;;;9.65;;
38435;SDS011;24220;48.168;14.024;2022-11-13T06:24:05;20.42;;;11.15;;
38435;SDS011;24220;48.168;14.024;2022-11-13T06:26:34;23.83;;;10.93;;
38435;SDS011;24220;48.168;14.024;2022-11-13T06:29:08;16.73;;;11.10;;
38435;SDS011;24220;48.168;14.024;2022-11-13T06:31:40;12.20;;;10.00;;
38435;SDS011;24220;48.168;14.024;2022-11-13T06:34:09;14.65;;;10.63;;
38435;SDS011;24220;48.168;14.024;2022-11-13T06:36:37;15.52;;;10.93;;
38435;SDS011;24220;48.168;14.024;2022-11-13T06:39:05;14.55;;;11.02;;
38435;SDS011;24220;48.168;14.024;2022-11-13T06:41:33;15.15;;;11.40;;
38435;SDS011;24220;48.168;14.024;2022-11-13T06:44:03;16.73;;;11.70;;
38435;SDS011;24220;48.168;14.024;2022-11-13T06:46:31;19.58;;;11.82;;
38435;SDS011;24220;48.168;14.024;2022-11-13T06:48:58;17.75;;;13.57;;
38435;SDS011;24220;48.168;14.024;2022-11-13T06:51:27;20.10;;;11.55;;
38435;SDS011;24220;48.168;14.024;2022-11-13T06:53:55;16.15;;;12.00;;
38435;SDS011;24220;48.168;14.024;2022-11-13T06:56:24;16.63;;;12.20;;
38435;SDS011;24220;48.168;14.024;2022-11-13T06:58:52;17.33;;;11.82;;
38435;SDS011;24220;48.168;14.024;2022-11-13T07:01:21;16.83;;;11.48;;
38435;SDS011;24220;48.168;14.024;2022-11-13T07:03:50;18.17;;;11.55;;
38435;SDS011;24220;48.168;14.024;2022-11-13T07:06:18;15.43;;;12.00;;
38435;SDS011;24220;48.168;14.024;2022-11-13T07:08:47;14.35;;;11.55;;
38435;SDS011;24220;48.168;14.024;2022-11-13T07:11:18;14.77;;;11.68;;
38435;SDS011;24220;48.168;14.024;2022-11-13T07:13:47;14.55;;;12.38;;
38435;SDS011;24220;48.168;14.024;2022-11-13T07:16:17;14.55;;;11.70;;
38435;SDS011;24220;48.168;14.024;2022-11-13T07:18:48;14.30;;;11.25;;
38435;SDS011;24220;48.168;14.024;2022-11-13T07:21:17;12.57;;;10.75;;
38435;SDS011;24220;48.168;14.024;2022-11-13T07:23:48;14.18;;;11.60;;
38435;SDS011;24220;48.168;14.024;2022-11-13T07:26:16;13.38;;;10.32;;
38435;SDS011;24220;48.168;14.024;2022-11-13T07:28:44;13.90;;;10.73;;
38435;SDS011;24220;48.168;14.024;2022-11-13T07:31:13;14.52;;;12.13;;
38435;SDS011;24220;48.168;14.024;2022-11-13T07:33:43;16.80;;;13.18;;
38435;SDS011;24220;48.168;14.024;2022-11-13T07:36:13;18.15;;;13.73;;
38435;SDS011;24220;48.168;14.024;2022-11-13T07:38:40;16.23;;;13.27;;
38435;SDS011;24220;48.168;14.024;2022-11-13T07:41:07;19.42;;;14.40;;
38435;SDS011;24220;48.168;14.024;2022-11-13T07:43:36;18.30;;;14.73;;
38435;SDS011;24220;48.168;14.024;2022-11-13T07:46:03;18.08;;;14.90;;
38435;SDS011;24220;48.168;14.024;2022-11-13T07:48:30;19.55;;;15.05;;
38435;SDS011;24220;48.168;14.024;2022-11-13T07:50:59;19.45;;;15.65;;
38435;SDS011;24220;48.168;14.024;2022-11-13T07:53:27;20.40;;;16.08;;
38435;SDS011;24220;48.168;14.024;2022-11-13T07:55:55;23.15;;;16.92;;
38435;SDS011;24220;48.168;14.024;2022-11-13T07:58:25;19.73;;;15.85;;
38435;SDS011;24220;48.168;14.024;2022-11-13T08:00:59;19.95;;;15.68;;
38435;SDS011;24220;48.168;14.024;2022-11-13T08:03:31;22.23;;;15.88;;
38435;SDS011;24220;48.168;14.024;2022-11-13T08:05:59;21.10;;;16.58;;
38435;SDS011;24220;48.168;14.024;2022-11-13T08:08:31;20.15;;;16.85;;
38435;SDS011;24220;48.168;14.024;2022-11-13T08:11:03;20.17;;;16.80;;
38435;SDS011;24220;48.168;14.024;2022-11-13T08:13:32;23.10;;;18.08;;
38435;SDS011;24220;48.168;14.024;2022-11-13T08:16:01;22.55;;;17.92;;
38435;SDS011;24220;48.168;14.024;2022-11-13T08:18:29;21.45;;;17.15;;
38435;SDS011;24220;48.168;14.024;2022-11-13T08:20:59;23.67;;;18.13;;
38435;SDS011;24220;48.168;14.024;2022-11-13T08:23:28;22.35;;;17.75;;
38435;SDS011;24220;48.168;14.024;2022-11-13T08:25:56;22.52;;;17.60;;
38435;SDS011;24220;48.168;14.024;2022-11-13T08:28:24;22.30;;;17.60;;
38435;SDS011;24220;48.168;14.024;2022-11-13T08:30:52;21.67;;;17.33;;
38435;SDS011;24220;48.168;14.024;2022-11-13T08:33:21;24.33;;;18.52;;
38435;SDS011;24220;48.168;14.024;2022-11-13T08:35:54;21.88;;;16.88;;
38435;SDS011;24220;48.168;14.024;2022-11-13T08:38:23;23.55;;;17.50;;
38435;SDS011;24220;48.168;14.024;2022-11-13T08:40:54;22.15;;;17.23;;
38435;SDS011;24220;48.168;14.024;2022-11-13T08:43:22;21.80;;;17.13;;
38435;SDS011;24220;48.168;14.024;2022-11-13T08:45:50;23.00;;;16.52;;
38435;SDS011;24220;48.168;14.024;2022-11-13T08:48:18;22.80;;;16.88;;
38435;SDS011;24220;48.168;14.024;2022-11-13T08:50:45;22.83;;;17.30;;
38435;SDS011;24220;48.168;14.024;2022-11-13T08:53:16;23.27;;;18.25;;
38435;SDS011;24220;48.168;14.024;2022-11-13T08:55:43;22.45;;;17.92;;
38435;SDS011;24220;48.168;14.024;2022-11-13T08:58:13;22.48;;;17.25;;
38435;SDS011;24220;48.168;14.024;2022-11-13T09:00:40;21.55;;;16.60;;
38435;SDS011;24220;48.168;14.024;2022-11-13T09:03:08;26.10;;;17.48;;
38435;SDS011;24220;48.168;14.024;2022-11-13T09:05:39;24.17;;;17.33;;
38435;SDS011;24220;48.168;14.024;2022-11-13T09:08:06;19.20;;;16.40;;
38435;SDS011;24220;48.168;14.024;2022-11-13T09:10:33;22.85;;;16.67;;
38435;SDS011;24220;48.168;14.024;2022-11-13T09:13:03;21.92;;;16.95;;
38435;SDS011;24220;48.168;14.024;2022-11-13T09:15:32;21.70;;;16.50;;
38435;SDS011;24220;48.168;14.024;2022-11-13T09:17:59;20.23;;;15.77;;
38435;SDS011;24220;48.168;14.024;2022-11-13T09:20:29;20.08;;;15.73;;
38435;SDS011;24220;48.168;14.024;2022-11-13T09:22:58;21.98;;;15.73;;
38435;SDS011;24220;48.168;14.024;2022-11-13T09:25:27;21.42;;;16.90;;
38435;SDS011;24220;48.168;14.024;2022-11-13T09:28:03;20.55;;;16.33;;
38435;SDS011;24220;48.168;14.024;2022-11-13T09:30:30;20.00;;;15.70;;
38435;SDS011;24220;48.168;14.024;2022-11-13T09:32:59;20.13;;;16.08;;
38435;SDS011;24220;48.168;14.024;2022-11-13T09:35:27;20.52;;;16.10;;
38435;SDS011;24220;48.168;14.024;2022-11-13T09:38:02;20.75;;;15.73;;
38435;SDS011;24220;48.168;14.024;2022-11-13T09:46:05;17.92;;;15.02;;
38435;SDS011;24220;48.168;14.024;2022-11-13T09:48:41;18.63;;;15.52;;
38435;SDS011;24220;48.168;14.024;2022-11-13T09:51:17;19.40;;;14.57;;
38435;SDS011;24220;48.168;14.024;2022-11-13T09:53:50;17.50;;;14.32;;
38435;SDS011;24220;48.168;14.024;2022-11-13T09:56:24;18.00;;;14.52;;
38435;SDS011;24220;48.168;14.024;2022-11-13T10:04:26;17.65;;;14.13;;
38435;SDS011;24220;48.168;14.024;2022-11-13T10:07:10;19.98;;;15.02;;
38435;SDS011;24220;48.168;14.024;2022-11-13T10:10:12;17.80;;;14.45;;
38435;SDS011;24220;48.168;14.024;2022-11-13T10:12:45;17.77;;;14.30;;
38435;SDS011;24220;48.168;14.024;2022-11-13T10:15:19;17.73;;;13.65;;
38435;SDS011;24220;48.168;14.024;2022-11-13T10:17:58;17.52;;;13.98;;
38435;SDS011;24220;48.168;14.024;2022-11-13T10:20:35;16.80;;;13.25;;
38435;SDS011;24220;48.168;14.024;2022-11-13T10:23:32;17.80;;;14.45;;
38435;SDS011;24220;48.168;14.024;2022-11-13T10:26:10;15.60;;;13.15;;
38435;SDS011;24220;48.168;14.024;2022-11-13T10:28:43;18.65;;;13.18;;
38435;SDS011;24220;48.168;14.024;2022-11-13T10:31:17;16.40;;;13.68;;
38435;SDS011;24220;48.168;14.024;2022-11-13T10:33:46;17.45;;;13.80;;
38435;SDS011;24220;48.168;14.024;2022-11-13T10:36:22;16.70;;;13.70;;
38435;SDS011;24220;48.168;14.024;2022-11-13T10:39:06;16.08;;;13.10;;
38435;SDS011;24220;48.168;14.024;2022-11-13T10:41:45;15.70;;;12.65;;
38435;SDS011;24220;48.168;14.024;2022-11-13T10:44:19;16.25;;;12.98;;
38435;SDS011;24220;48.168;14.024;2022-11-13T10:47:17;15.90;;;12.68;;
38435;SDS011;24220;48.168;14.024;2022-11-13T10:52:57;16.13;;;12.30;;
38435;SDS011;24220;48.168;14.024;2022-11-13T10:55:45;15.10;;;12.40;;
38435;SDS011;24220;48.168;14.024;2022-11-13T10:58:18;13.35;;;11.77;;
38435;SDS011;24220;48.168;14.024;2022-11-13T11:00:48;14.77;;;11.88;;
38435;SDS011;24220;48.168;14.024;2022-11-13T11:03:20;16.20;;;12.77;;
38435;SDS011;24220;48.168;14.024;2022-11-13T11:05:51;15.68;;;12.55;;
38435;SDS011;24220;48.168;14.024;2022-11-13T11:08:30;14.15;;;12.32;;
38435;SDS011;24220;48.168;14.024;2022-11-13T11:11:13;14.65;;;12.32;;
38435;SDS011;24220;48.168;14.024;2022-11-13T11:14:45;15.07;;;12.52;;
38435;SDS011;24220;48.168;14.024;2022-11-13T11:16:57;16.85;;;12.68;;
38435;SDS011;24220;48.168;14.024;2022-11-13T11:19:27;15.48;;;12.73;;
38435;SDS011;24220;48.168;14.024;2022-11-13T11:22:04;15.40;;;12.80;;
38435;SDS011;24220;48.168;14.024;2022-11-13T11:24:38;17.88;;;13.65;;
38435;SDS011;24220;48.168;14.024;2022-11-13T11:27:25;15.52;;;12.35;;
38435;SDS011;24220;48.168;14.024;2022-11-13T11:33:17;13.98;;;11.52;;
38435;SDS011;24220;48.168;14.024;2022-11-13T11:38:20;15.27;;;12.10;;
38435;SDS011;24220;48.168;14.024;2022-11-13T11:40:55;15.25;;;12.15;;
38435;SDS011;24220;48.168;14.024;2022-11-13T11:46:11;15.57;;;11.90;;
38435;SDS011;24220;48.168;14.024;2022-11-13T11:48:39;13.25;;;10.93;;
38435;SDS011;24220;48.168;14.024;2022-11-13T11:54:09;14.13;;;11.32;;
38435;SDS011;24220;48.168;14.024;2022-11-13T11:56:58;13.65;;;11.05;;
38435;SDS011;24220;48.168;14.024;2022-11-13T11:59:43;12.43;;;11.00;;
38435;SDS011;24220;48.168;14.024;2022-11-13T12:13:40;12.73;;;10.10;;
38435;SDS011;24220;48.168;14.024;2022-11-13T12:22:13;11.82;;;9.90;;
38435;SDS011;24220;48.168;14.024;2022-11-13T12:25:17;12.35;;;9.80;;
38435;SDS011;24220;48.168;14.024;2022-11-13T12:30:54;12.68;;;9.88;;
38435;SDS011;24220;48.168;14.024;2022-11-13T12:33:46;13.63;;;11.18;;
38435;SDS011;24220;48.168;14.024;2022-11-13T12:36:33;12.93;;;9.85;;
38435;SDS011;24220;48.168;14.024;2022-11-13T12:44:58;11.88;;;10.13;;
38435;SDS011;24220;48.168;14.024;2022-11-13T12:50:25;12.77;;;9.95;;
38435;SDS011;24220;48.168;14.024;2022-11-13T12:53:02;11.80;;;10.13;;
38435;SDS011;24220;48.168;14.024;2022-11-13T12:55:33;12.65;;;9.48;;
38435;SDS011;24220;48.168;14.024;2022-11-13T12:58:17;11.98;;;8.90;;
38435;SDS011;24220;48.168;14.024;2022-11-13T13:00:55;10.30;;;9.15;;
38435;SDS011;24220;48.168;14.024;2022-11-13T13:03:52;13.70;;;9.48;;
38435;SDS011;24220;48.168;14.024;2022-11-13T13:06:53;13.10;;;9.90;;
38435;SDS011;24220;48.168;14.024;2022-11-13T13:20:36;12.18;;;9.23;;
38435;SDS011;24220;48.168;14.024;2022-11-13T13:23:11;13.43;;;10.13;;
38435;SDS011;24220;48.168;14.024;2022-11-13T13:25:39;13.18;;;9.68;;
38435;SDS011;24220;48.168;14.024;2022-11-13T13:28:17;11.05;;;9.65;;
38435;SDS011;24220;48.168;14.024;2022-11-13T13:45:01;13.77;;;11.35;;
38435;SDS011;24220;48.168;14.024;2022-11-13T13:47:52;12.43;;;9.50;;
38435;SDS011;24220;48.168;14.024;2022-11-13T13:50:23;12.63;;;10.25;;
38435;SDS011;24220;48.168;14.024;2022-11-13T13:52:55;12.32;;;10.68;;
38435;SDS011;24220;48.168;14.024;2022-11-13T13:55:30;13.32;;;10.90;;
38435;SDS011;24220;48.168;14.024;2022-11-13T13:58:12;12.43;;;10.38;;
38435;SDS011;24220;48.168;14.024;2022-11-13T14:00:53;13.02;;;10.90;;
38435;SDS011;24220;48.168;14.024;2022-11-13T14:08:47;13.27;;;10.68;;
38435;SDS011;24220;48.168;14.024;2022-11-13T14:11:21;13.32;;;11.00;;
38435;SDS011;24220;48.168;14.024;2022-11-13T14:14:05;12.90;;;11.23;;
38435;SDS011;24220;48.168;14.024;2022-11-13T14:16:45;15.68;;;11.93;;
38435;SDS011;24220;48.168;14.024;2022-11-13T14:19:16;14.15;;;11.75;;
38435;SDS011;24220;48.168;14.024;2022-11-13T14:21:44;13.35;;;11.73;;
38435;SDS011;24220;48.168;14.024;2022-11-13T14:27:09;14.23;;;11.45;;
38435;SDS011;24220;48.168;14.024;2022-11-13T14:29:46;14.27;;;12.07;;
38435;SDS011;24220;48.168;14.024;2022-11-13T14:32:20;15.18;;;12.60;;
38435;SDS011;24220;48.168;14.024;2022-11-13T14:34:54;14.23;;;12.18;;
38435;SDS011;24220;48.168;14.024;2022-11-13T14:37:27;16.27;;;13.23;;
38435;SDS011;24220;48.168;14.024;2022-11-13T14:40:01;14.98;;;12.70;;
38435;SDS011;24220;48.168;14.024;2022-11-13T14:42:32;14.27;;;12.65;;
38435;SDS011;24220;48.168;14.024;2022-11-13T14:45:18;14.57;;;12.75;;
38435;SDS011;24220;48.168;14.024;2022-11-13T14:50:59;17.75;;;14.32;;
38435;SDS011;24220;48.168;14.024;2022-11-13T14:53:32;15.38;;;13.00;;
38435;SDS011;24220;48.168;14.024;2022-11-13T14:56:04;15.52;;;13.80;;
38435;SDS011;24220;48.168;14.024;2022-11-13T14:58:37;15.35;;;13.27;;
38435;SDS011;24220;48.168;14.024;2022-11-13T15:03:45;17.30;;;14.70;;
38435;SDS011;24220;48.168;14.024;2022-11-13T15:06:14;16.00;;;13.38;;
38435;SDS011;24220;48.168;14.024;2022-11-13T15:08:52;17.08;;;14.27;;
38435;SDS011;24220;48.168;14.024;2022-11-13T15:11:24;18.10;;;14.65;;
38435;SDS011;24220;48.168;14.024;2022-11-13T15:13:52;17.42;;;14.45;;
38435;SDS011;24220;48.168;14.024;2022-11-13T15:16:29;16.08;;;13.30;;
38435;SDS011;24220;48.168;14.024;2022-11-13T15:19:01;16.13;;;13.73;;
38435;SDS011;24220;48.168;14.024;2022-11-13T15:21:48;16.30;;;14.20;;
38435;SDS011;24220;48.168;14.024;2022-11-13T15:24:35;16.08;;;13.40;;
38435;SDS011;24220;48.168;14.024;2022-11-13T15:27:03;17.83;;;13.93;;
38435;SDS011;24220;48.168;14.024;2022-11-13T15:29:34;16.83;;;13.88;;
38435;SDS011;24220;48.168;14.024;2022-11-13T15:32:03;19.30;;;14.60;;
38435;SDS011;24220;48.168;14.024;2022-11-13T15:34:30;15.77;;;13.43;;
38435;SDS011;24220;48.168;14.024;2022-11-13T15:36:58;16.67;;;14.63;;
38435;SDS011;24220;48.168;14.024;2022-11-13T15:39:25;15.02;;;13.57;;
38435;SDS011;24220;48.168;14.024;2022-11-13T15:41:53;18.25;;;13.98;;
38435;SDS011;24220;48.168;14.024;2022-11-13T15:44:20;16.30;;;13.60;;
38435;SDS011;24220;48.168;14.024;2022-11-13T15:46:47;18.02;;;13.95;;
38435;SDS011;24220;48.168;14.024;2022-11-13T15:49:14;17.52;;;14.18;;
38435;SDS011;24220;48.168;14.024;2022-11-13T15:51:44;14.77;;;12.77;;
38435;SDS011;24220;48.168;14.024;2022-11-13T15:54:13;15.32;;;13.20;;
38435;SDS011;24220;48.168;14.024;2022-11-13T15:57:17;15.20;;;13.38;;
38435;SDS011;24220;48.168;14.024;2022-11-13T15:59:50;17.58;;;13.25;;
38435;SDS011;24220;48.168;14.024;2022-11-13T16:02:17;14.38;;;12.43;;
38435;SDS011;24220;48.168;14.024;2022-11-13T16:04:45;15.40;;;12.52;;
38435;SDS011;24220;48.168;14.024;2022-11-13T16:07:24;15.40;;;13.70;;
38435;SDS011;24220;48.168;14.024;2022-11-13T16:09:54;16.25;;;13.70;;
38435;SDS011;24220;48.168;14.024;2022-11-13T16:12:22;17.23;;;13.63;;
38435;SDS011;24220;48.168;14.024;2022-11-13T16:14:49;15.80;;;13.63;;
38435;SDS011;24220;48.168;14.024;2022-11-13T16:17:17;15.07;;;12.15;;
38435;SDS011;24220;48.168;14.024;2022-11-13T16:19:48;16.53;;;13.43;;
38435;SDS011;24220;48.168;14.024;2022-11-13T16:22:22;14.32;;;12.35;;
38435;SDS011;24220;48.168;14.024;2022-11-13T16:24:50;13.25;;;11.80;;